الصفحة الرئيسية
METAR-TAF:

METAR-TAF

مطار :

Miller Field

فاليتين, نبراسكا, الولايات المتحدة

دائرة عرض: 42-51-31N, خط طول: 100-33-05W, ارتفاع: 789 متر

مراقبة الطقس الحالي

تاريخ ووقت الإصدار 31 دقيقة قبل الساعة 11:52UTC
ريح 11 عقدة من الجنوب/الجنوب الغربي
درجة الحرارة -2°درجة مئوية
الرطوبة 74%
ضغط 1015 hPa
الرؤية: 16.1 كم
سماء صافية

METAR: KVTN 151152Z AUTO 20011KT 10SM CLR M02/M06 A2997 RMK AO2 SLP173 T10171056 11006 21039 56020

زمن: 06:23 (12:23 UTC)

توقعات

تاريخ ووقت الإصدار 54 دقيقة قبل الساعة 11:29UTC
التوقعات صالحة من15 الساعة 12 UTC إلى 16 الساعة 12 UTC
ريح 8 عقدة من الجنوب/الجنوب الغربي
الرؤية: 10 كم
غيوم متفرقة على ارتفاع 25000 قدم
من 15 الساعة 1800 UTC
ريح 13 عقدة من الغرب تتزايد حتى 20 عقدة
الرؤية: 10 كم
غيوم مفككة على ارتفاع 25000 قدم
من 15 الساعة 2200 UTC
ريح 10 عقدة من الغرب/الشمال الغربي
الرؤية: 10 كم
غيوم متفرقة على ارتفاع 25000 قدم
من 16 الساعة 0300 UTC
ريح 5 عقدة من الغرب
الرؤية: 10 كم
غيوم قليلة على ارتفاع 25000 قدم

TAF: KVTN 151129Z 1512/1612 21008KT P6SM SCT250 FM151800 26013G20KT P6SM BKN250 FM152200 29010KT P6SM SCT250 FM160300 28005KT P6SM FEW250

أرصاد الطقس والتوقعات من أكثر من 4000 مطار (تقارير الطقس للمطار METAR والتنبؤ بالطقس بالمطارTAF).

المحطات المتاحة هي النقط الصفراء والحمراء على الخريطة.

حرك المؤشر فوق النقطة لمعرفة اسم المحطة.

ثم انقر لمعرفة أرصاد وتوقعات الطقس.

لتغيير الخارطة: اضغط على الأزرار الخضراء مع رمز الصليب الأسود للتكبير. على الزر الأخضر مع شرطة للتصغير، أو على الأسهم الخضراء للخرائط المجاورة.


METAR-TAF: